Annapolis, Illinois
Current Conditions -  °F | °C
As of 2:55 PM on Friday 31 Oct 2014 (Local Time) from KRSV Reporting Station
Overcast Overcast  
Wind Chill: 36°   Ceiling: 5000
Heat Index: 44°   Visibility: 10mi
Dew Point: 30°   Wind: 18mph
Humidity: 58%   Direction: 340°NNW
Pressure: 30.14"   Gusts: 35mph
Location:  39.14°N, 87.82°W
Report Text: KRSV 311955Z AUTO 34016G30KT 10SM SCT044 OVC050 07/M01 A3014 RMK AO2 T00671011
Loading
Personal Weather Stations






























Interactive Weather Map
Tropical Storm Tracking
New forecast layout! Learn more

10-Day Weather Forecast

Advertisements
Track Severe Weather on mobile